EIKY/KIR METAR and TAF weather

Enter ICAO airport designator
Station Type Date Time Source
EIKY METAR 2018/09/21 20:00 UTC NOAA

EIKY 212000Z 24003KT 9999 SCT048 08/07 Q1017


Station Type Date Time Source
EIKY Decoded METAR 2018/09/21 20:00 UTC NOAA

Station name not available
Sep 21, 2018 - 04:00 PM EDT / 2018.09.21 2000 UTC
Wind: from the WSW (240 degrees) at 3 MPH (3 KT):0
Visibility: greater than 7 mile(s):0
Sky conditions: partly cloudy
Temperature: 46 F (8 C)
Dew Point: 44 F (7 C)
Relative Humidity: 93%
Pressure (altimeter): 30.03 in. Hg (1017 hPa)
ob: EIKY 212000Z 24003KT 9999 SCT048 08/07 Q1017
cycle: 20

Station Type Date Time Source
EIKY TAF UTC NOAA

Error!


Example: see airport list